PWSweather.com
Personal Weather Stations
Station Observations
PWSLORIS
The Farm At Fox Bay, Loris, SC 29569

The Farm At Fox BayLoris, SC 29569

Lat: 34.067097, Lon: -78.86907

Elevation: 108

Station Type: Davis Vantage Pro2 with 24 hr. FARS and solar

http://www.lorisweather.com

High Low Average
Temperature 50.2°F10.1°C 32.6°F0.3°C 39.0°F3.9°C
Dew Point 33.1°F0.6°C 26.1°F-3.3°C 30.3°F-0.9°C
Winds 6.9 mph 11.1 kmh Calm Calm 2.0 mph WSW3.2 kmh WSW
Wind Gusts 11.5 mph18.5 kmh -- 4.0 mph6.4 kmh
Humidity 87% 41% 73%
Pressure 30.21 in1023.0 mb 30.11 in1019.6 mb -
Precipitation 0.16 in4.1 mm - -
Hour Temp Dew Point Humidity Winds Wind Gusts Pressure Precip Precip Rate Daily Precip Total
12:00 AM 36.2°F2.3°C 31.5°F-0.3°C 83% 2.3 mph NNE3.7 kmh NNE 3.5 mph5.6 kmh 30.11 in1019.6 mb - 0.01 in0.3 mm 0.01 in0.3 mm
12:15 AM 36.2°F2.3°C 31.8°F-0.1°C 84% 3.5 mph NNE5.6 kmh NNE 5.8 mph9.3 kmh 30.11 in1019.6 mb - 0.01 in0.3 mm 0.02 in0.5 mm
12:30 AM 36.2°F2.3°C 31.8°F-0.1°C 84% 2.3 mph N3.7 kmh N 3.5 mph5.6 kmh 30.11 in1019.6 mb - 0.01 in0.3 mm 0.01 in0.3 mm
12:45 AM 36.2°F2.3°C 31.8°F-0.1°C 84% 2.3 mph NNE3.7 kmh NNE 3.5 mph5.6 kmh 30.11 in1019.6 mb - 0.01 in0.3 mm 0.01 in0.3 mm
01:00 AM 36.2°F2.3°C 31.8°F-0.1°C 84% 4.6 mph N7.4 kmh N 9.2 mph14.8 kmh 30.11 in1019.6 mb - 0.01 in0.3 mm 0.01 in0.3 mm
01:15 AM 36.2°F2.3°C 31.8°F-0.1°C 84% 2.3 mph N3.7 kmh N 4.6 mph7.4 kmh 30.11 in1019.6 mb - 0.01 in0.3 mm 0.01 in0.3 mm
01:30 AM 36.3°F2.4°C 31.9°F-0.1°C 84% 2.3 mph N3.7 kmh N 3.5 mph5.6 kmh 30.11 in1019.6 mb - 0.00 in0.0 mm 0.01 in0.3 mm
01:45 AM 36.4°F2.4°C 32.0°F0.0°C 84% Calm Calm 3.5 mph5.6 kmh 30.11 in1019.6 mb - 0.00 in0.0 mm 0.01 in0.3 mm
02:00 AM 36.4°F2.4°C 32.0°F0.0°C 84% 2.3 mph NNE3.7 kmh NNE 3.5 mph5.6 kmh 30.11 in1019.6 mb - 0.00 in0.0 mm 0.01 in0.3 mm
02:15 AM 36.4°F2.4°C 32.0°F0.0°C 84% 3.5 mph NNE5.6 kmh NNE 5.8 mph9.3 kmh 30.11 in1019.6 mb - 0.00 in0.0 mm 0.01 in0.3 mm
02:30 AM 36.4°F2.4°C 32.0°F0.0°C 84% 2.3 mph NNE3.7 kmh NNE 4.6 mph7.4 kmh 30.11 in1019.6 mb - 0.00 in0.0 mm 0.01 in0.3 mm
02:45 AM 36.3°F2.4°C 31.9°F-0.1°C 84% 2.3 mph N3.7 kmh N 4.6 mph7.4 kmh 30.11 in1019.6 mb - 0.00 in0.0 mm 0.01 in0.3 mm
03:00 AM 36.2°F2.3°C 31.8°F-0.1°C 84% Calm Calm 1.2 mph1.9 kmh 30.11 in1019.6 mb - 0.01 in0.3 mm 0.02 in0.5 mm
03:15 AM 36.2°F2.3°C 31.9°F-0.1°C 84% 1.2 mph NW1.9 kmh NW 1.2 mph1.9 kmh 30.11 in1019.6 mb - 0.01 in0.3 mm 0.02 in0.5 mm
03:30 AM 36.2°F2.3°C 31.8°F-0.1°C 84% 2.3 mph NNE3.7 kmh NNE 2.3 mph3.7 kmh 30.11 in1019.6 mb - 0.01 in0.3 mm 0.02 in0.5 mm
03:45 AM 36.2°F2.3°C 31.8°F-0.1°C 84% 2.3 mph N3.7 kmh N 3.5 mph5.6 kmh 30.11 in1019.6 mb - 0.02 in0.5 mm 0.03 in0.8 mm
04:00 AM 36.1°F2.3°C 31.7°F-0.2°C 84% 2.3 mph N3.7 kmh N 3.5 mph5.6 kmh 30.11 in1019.6 mb - 0.04 in1.0 mm 0.06 in1.5 mm
04:15 AM 35.9°F2.2°C 31.5°F-0.3°C 84% 1.2 mph N1.9 kmh N 5.8 mph9.3 kmh 30.11 in1019.6 mb - 0.08 in2.0 mm 0.10 in2.5 mm
04:30 AM 35.9°F2.2°C 31.5°F-0.3°C 84% 3.5 mph NE5.6 kmh NE 4.6 mph7.4 kmh 30.11 in1019.6 mb - 0.12 in3.0 mm 0.14 in3.6 mm
04:45 AM 35.8°F2.1°C 31.4°F-0.3°C 84% 1.2 mph N1.9 kmh N 3.5 mph5.6 kmh 30.11 in1019.6 mb - 0.13 in3.3 mm 0.16 in4.1 mm
05:00 AM 35.9°F2.2°C 31.5°F-0.3°C 84% 5.8 mph NNE9.3 kmh NNE 8.1 mph13.0 kmh 30.12 in1020.0 mb - 0.10 in2.5 mm 0.16 in4.1 mm
05:15 AM 35.9°F2.2°C 31.2°F-0.4°C 83% 1.2 mph NNW1.9 kmh NNW 2.3 mph3.7 kmh 30.13 in1020.3 mb - 0.06 in1.5 mm 0.16 in4.1 mm
05:30 AM 35.9°F2.2°C 31.2°F-0.4°C 83% 1.2 mph N1.9 kmh N 1.2 mph1.9 kmh 30.14 in1020.7 mb - 0.02 in0.5 mm 0.16 in4.1 mm
05:45 AM 35.7°F2.1°C 30.5°F-0.8°C 81% 1.2 mph N1.9 kmh N 3.5 mph5.6 kmh 30.14 in1020.7 mb - 0.00 in0.0 mm 0.16 in4.1 mm
06:00 AM 35.7°F2.1°C 30.4°F-0.9°C 81% 1.2 mph NNW1.9 kmh NNW 3.5 mph5.6 kmh 30.14 in1020.7 mb - 0.00 in0.0 mm 0.16 in4.1 mm
06:15 AM 35.6°F2.0°C 30.3°F-0.9°C 81% Calm Calm 3.5 mph5.6 kmh 30.15 in1021.0 mb - 0.00 in0.0 mm 0.16 in4.1 mm
06:30 AM 35.5°F1.9°C 30.2°F-1.0°C 81% 1.2 mph NNW1.9 kmh NNW 3.5 mph5.6 kmh 30.16 in1021.3 mb - 0.00 in0.0 mm 0.16 in4.1 mm
06:45 AM 35.4°F1.9°C 30.1°F-1.1°C 81% 2.3 mph NW3.7 kmh NW 4.6 mph7.4 kmh 30.16 in1021.3 mb - 0.00 in0.0 mm 0.16 in4.1 mm
07:00 AM 35.3°F1.8°C 30.1°F-1.1°C 81% 1.2 mph NNW1.9 kmh NNW 3.5 mph5.6 kmh 30.16 in1021.3 mb - 0.00 in0.0 mm 0.16 in4.1 mm
07:15 AM 35.2°F1.8°C 30.3°F-0.9°C 82% 1.2 mph NNW1.9 kmh NNW 3.5 mph5.6 kmh 30.17 in1021.7 mb - 0.00 in0.0 mm 0.16 in4.1 mm
07:30 AM 35.2°F1.8°C 30.3°F-0.9°C 82% 1.2 mph NW1.9 kmh NW 2.3 mph3.7 kmh 30.17 in1021.7 mb - 0.00 in0.0 mm 0.16 in4.1 mm
07:45 AM 35.4°F1.9°C 30.4°F-0.9°C 82% 2.3 mph NNW3.7 kmh NNW 4.6 mph7.4 kmh 30.18 in1022.0 mb - 0.00 in0.0 mm 0.16 in4.1 mm
08:00 AM 35.5°F1.9°C 30.3°F-0.9°C 81% 3.5 mph NW5.6 kmh NW 4.6 mph7.4 kmh 30.18 in1022.0 mb - 0.00 in0.0 mm 0.16 in4.1 mm
08:15 AM 36.1°F2.3°C 30.2°F-1.0°C 79% 3.5 mph NNW5.6 kmh NNW 6.9 mph11.1 kmh 30.19 in1022.4 mb - 0.00 in0.0 mm 0.16 in4.1 mm
08:30 AM 36.6°F2.6°C 30.1°F-1.1°C 77% 3.5 mph NNW5.6 kmh NNW 6.9 mph11.1 kmh 30.19 in1022.4 mb - 0.00 in0.0 mm 0.16 in4.1 mm
08:45 AM 37.9°F3.3°C 30.4°F-0.9°C 74% 5.8 mph NNW9.3 kmh NNW 9.2 mph14.8 kmh 30.19 in1022.4 mb - 0.00 in0.0 mm 0.16 in4.1 mm
09:00 AM 38.1°F3.4°C 30.5°F-0.8°C 74% 4.6 mph N7.4 kmh N 10.4 mph16.7 kmh 30.20 in1022.7 mb - 0.00 in0.0 mm 0.16 in4.1 mm
09:15 AM 38.0°F3.3°C 30.4°F-0.9°C 74% 5.8 mph N9.3 kmh N 9.2 mph14.8 kmh 30.20 in1022.7 mb - 0.00 in0.0 mm 0.16 in4.1 mm
09:30 AM 38.7°F3.7°C 30.8°F-0.7°C 73% 5.8 mph NNW9.3 kmh NNW 9.2 mph14.8 kmh 30.21 in1023.0 mb - 0.00 in0.0 mm 0.16 in4.1 mm
09:45 AM 41.1°F5.1°C 33.1°F0.6°C 73% 2.3 mph NW3.7 kmh NW 3.5 mph5.6 kmh 30.21 in1023.0 mb - 0.00 in0.0 mm 0.16 in4.1 mm
10:00 AM 41.5°F5.3°C 32.8°F0.4°C 71% 3.5 mph NW5.6 kmh NW 6.9 mph11.1 kmh 30.21 in1023.0 mb - 0.00 in0.0 mm 0.16 in4.1 mm
10:15 AM 41.1°F5.1°C 31.4°F-0.3°C 68% 3.5 mph N5.6 kmh N 5.8 mph9.3 kmh 30.21 in1023.0 mb - 0.00 in0.0 mm 0.16 in4.1 mm
10:30 AM 41.9°F5.5°C 31.7°F-0.2°C 67% 4.6 mph NNW7.4 kmh NNW 5.8 mph9.3 kmh 30.21 in1023.0 mb - 0.00 in0.0 mm 0.16 in4.1 mm
10:45 AM 42.9°F6.1°C 32.4°F0.2°C 66% 2.3 mph NNW3.7 kmh NNW 8.1 mph13.0 kmh 30.21 in1023.0 mb - 0.00 in0.0 mm 0.16 in4.1 mm
11:00 AM 43.6°F6.4°C 31.9°F-0.1°C 63% 3.5 mph NNW5.6 kmh NNW 8.1 mph13.0 kmh 30.20 in1022.7 mb - 0.00 in0.0 mm 0.16 in4.1 mm
11:15 AM 44.3°F6.8°C 31.7°F-0.2°C 61% 3.5 mph W5.6 kmh W 10.4 mph16.7 kmh 30.20 in1022.7 mb - 0.00 in0.0 mm 0.16 in4.1 mm
11:30 AM 45.8°F7.7°C 31.9°F-0.1°C 58% 5.8 mph N9.3 kmh N 11.5 mph18.5 kmh 30.19 in1022.4 mb - 0.00 in0.0 mm 0.16 in4.1 mm
11:45 AM 45.8°F7.7°C 32.2°F0.1°C 59% 2.3 mph NNW3.7 kmh NNW 5.8 mph9.3 kmh 30.18 in1022.0 mb - 0.00 in0.0 mm 0.16 in4.1 mm
12:00 PM 46.4°F8.0°C 30.2°F-1.0°C 53% 4.6 mph N7.4 kmh N 9.2 mph14.8 kmh 30.18 in1022.0 mb - 0.00 in0.0 mm 0.16 in4.1 mm
12:15 PM 47.1°F8.4°C 30.8°F-0.7°C 53% 5.8 mph NNW9.3 kmh NNW 6.9 mph11.1 kmh 30.16 in1021.3 mb - 0.00 in0.0 mm 0.16 in4.1 mm
12:30 PM 47.8°F8.8°C 31.9°F-0.1°C 54% 1.2 mph NNW1.9 kmh NNW 8.1 mph13.0 kmh 30.16 in1021.3 mb - 0.00 in0.0 mm 0.16 in4.1 mm
12:45 PM 48.2°F9.0°C 29.4°F-1.4°C 48% 4.6 mph W7.4 kmh W 6.9 mph11.1 kmh 30.16 in1021.3 mb - 0.00 in0.0 mm 0.16 in4.1 mm
01:00 PM 48.1°F8.9°C 27.8°F-2.3°C 45% 6.9 mph NNW11.1 kmh NNW 11.5 mph18.5 kmh 30.15 in1021.0 mb - 0.00 in0.0 mm 0.16 in4.1 mm
01:15 PM 48.7°F9.3°C 28.8°F-1.8°C 46% 3.5 mph N5.6 kmh N 4.6 mph7.4 kmh 30.14 in1020.7 mb - 0.00 in0.0 mm 0.16 in4.1 mm
01:30 PM 48.8°F9.3°C 29.4°F-1.4°C 47% 3.5 mph NW5.6 kmh NW 8.1 mph13.0 kmh 30.14 in1020.7 mb - 0.00 in0.0 mm 0.16 in4.1 mm
01:45 PM 49.4°F9.7°C 27.8°F-2.3°C 43% 4.6 mph NW7.4 kmh NW 8.1 mph13.0 kmh 30.14 in1020.7 mb - 0.00 in0.0 mm 0.16 in4.1 mm
02:00 PM 49.7°F9.8°C 28.1°F-2.2°C 43% 3.5 mph N5.6 kmh N 3.5 mph5.6 kmh 30.13 in1020.3 mb - 0.00 in0.0 mm 0.16 in4.1 mm
02:15 PM 50.0°F10.0°C 29.5°F-1.4°C 45% 3.5 mph NNW5.6 kmh NNW 6.9 mph11.1 kmh 30.13 in1020.3 mb - 0.00 in0.0 mm 0.16 in4.1 mm
02:30 PM 50.2°F10.1°C 28.5°F-1.9°C 43% 6.9 mph NNW11.1 kmh NNW 11.5 mph18.5 kmh 30.13 in1020.3 mb - 0.00 in0.0 mm 0.16 in4.1 mm
02:45 PM 49.6°F9.8°C 28.5°F-1.9°C 44% 3.5 mph NW5.6 kmh NW 5.8 mph9.3 kmh 30.13 in1020.3 mb - 0.00 in0.0 mm 0.16 in4.1 mm
03:00 PM 49.2°F9.6°C 28.2°F-2.1°C 44% Calm Calm 1.2 mph1.9 kmh 30.13 in1020.3 mb - 0.00 in0.0 mm 0.16 in4.1 mm
03:15 PM 49.1°F9.5°C 28.6°F-1.9°C 45% 2.3 mph NW3.7 kmh NW 6.9 mph11.1 kmh 30.13 in1020.3 mb - 0.00 in0.0 mm 0.16 in4.1 mm
03:30 PM 48.9°F9.4°C 28.0°F-2.2°C 44% 2.3 mph NW3.7 kmh NW 3.5 mph5.6 kmh 30.14 in1020.7 mb - 0.00 in0.0 mm 0.16 in4.1 mm
03:45 PM 48.8°F9.3°C 26.1°F-3.3°C 41% 4.6 mph NW7.4 kmh NW 6.9 mph11.1 kmh 30.14 in1020.7 mb - 0.00 in0.0 mm 0.16 in4.1 mm
04:00 PM 48.5°F9.2°C 27.0°F-2.8°C 43% 3.5 mph NW5.6 kmh NW 6.9 mph11.1 kmh 30.14 in1020.7 mb - 0.00 in0.0 mm 0.16 in4.1 mm
04:15 PM 47.8°F8.8°C 28.0°F-2.2°C 46% 1.2 mph NNW1.9 kmh NNW 4.6 mph7.4 kmh 30.14 in1020.7 mb - 0.00 in0.0 mm 0.16 in4.1 mm
04:30 PM 46.9°F8.3°C 28.2°F-2.1°C 48% 1.2 mph NNW1.9 kmh NNW 3.5 mph5.6 kmh 30.15 in1021.0 mb - 0.00 in0.0 mm 0.16 in4.1 mm
04:45 PM 45.0°F7.2°C 31.1°F-0.5°C 58% Calm Calm -- 30.15 in1021.0 mb - 0.00 in0.0 mm 0.16 in4.1 mm
05:00 PM 42.4°F5.8°C 31.1°F-0.5°C 64% Calm Calm -- 30.15 in1021.0 mb - 0.00 in0.0 mm 0.16 in4.1 mm
05:15 PM 41.4°F5.2°C 31.3°F-0.4°C 67% Calm Calm -- 30.15 in1021.0 mb - 0.00 in0.0 mm 0.16 in4.1 mm
05:30 PM 40.3°F4.6°C 30.5°F-0.8°C 68% Calm Calm -- 30.15 in1021.0 mb - 0.00 in0.0 mm 0.16 in4.1 mm
05:45 PM 39.2°F4.0°C 30.2°F-1.0°C 70% Calm Calm -- 30.16 in1021.3 mb - 0.00 in0.0 mm 0.16 in4.1 mm
06:00 PM 38.3°F3.5°C 30.4°F-0.9°C 73% Calm Calm -- 30.16 in1021.3 mb - 0.00 in0.0 mm 0.16 in4.1 mm
06:15 PM 37.5°F3.1°C 30.3°F-0.9°C 75% Calm Calm -- 30.17 in1021.7 mb - 0.00 in0.0 mm 0.16 in4.1 mm
06:30 PM 36.8°F2.7°C 29.6°F-1.3°C 75% Calm Calm -- 30.18 in1022.0 mb - 0.00 in0.0 mm 0.16 in4.1 mm
06:45 PM 36.1°F2.3°C 29.3°F-1.5°C 76% Calm Calm -- 30.18 in1022.0 mb - 0.00 in0.0 mm 0.16 in4.1 mm
07:00 PM 35.4°F1.9°C 28.9°F-1.7°C 77% Calm Calm -- 30.18 in1022.0 mb - 0.00 in0.0 mm 0.16 in4.1 mm
07:15 PM 35.0°F1.7°C 28.8°F-1.8°C 78% Calm Calm -- 30.18 in1022.0 mb - 0.00 in0.0 mm 0.16 in4.1 mm
07:30 PM 34.5°F1.4°C 29.3°F-1.5°C 81% Calm Calm -- 30.18 in1022.0 mb - 0.00 in0.0 mm 0.16 in4.1 mm
07:45 PM 34.1°F1.2°C 29.2°F-1.6°C 82% Calm Calm -- 30.19 in1022.4 mb - 0.00 in0.0 mm 0.16 in4.1 mm
08:00 PM 33.6°F0.9°C 29.0°F-1.7°C 83% Calm Calm -- 30.18 in1022.0 mb - 0.00 in0.0 mm 0.16 in4.1 mm
08:15 PM 33.3°F0.7°C 29.0°F-1.7°C 84% Calm Calm -- 30.19 in1022.4 mb - 0.00 in0.0 mm 0.16 in4.1 mm
08:30 PM 33.0°F0.6°C 28.7°F-1.8°C 84% Calm Calm -- 30.19 in1022.4 mb - 0.00 in0.0 mm 0.16 in4.1 mm
08:45 PM 32.8°F0.4°C 28.8°F-1.8°C 85% Calm Calm -- 30.19 in1022.4 mb - 0.00 in0.0 mm 0.16 in4.1 mm
09:00 PM 32.8°F0.4°C 29.1°F-1.6°C 86% Calm Calm -- 30.19 in1022.4 mb - 0.00 in0.0 mm 0.16 in4.1 mm
09:15 PM 32.7°F0.4°C 29.0°F-1.7°C 86% Calm Calm -- 30.19 in1022.4 mb - 0.00 in0.0 mm 0.16 in4.1 mm
09:30 PM 32.6°F0.3°C 28.8°F-1.8°C 86% Calm Calm -- 30.19 in1022.4 mb - 0.00 in0.0 mm 0.16 in4.1 mm
09:45 PM 32.8°F0.4°C 29.1°F-1.6°C 86% Calm Calm -- 30.19 in1022.4 mb - 0.00 in0.0 mm 0.16 in4.1 mm
10:00 PM 32.9°F0.5°C 29.2°F-1.6°C 86% Calm Calm -- 30.19 in1022.4 mb - 0.00 in0.0 mm 0.16 in4.1 mm
10:15 PM 32.9°F0.5°C 29.2°F-1.6°C 86% Calm Calm -- 30.19 in1022.4 mb - 0.00 in0.0 mm 0.16 in4.1 mm
10:30 PM 32.9°F0.5°C 29.2°F-1.6°C 86% Calm Calm -- 30.19 in1022.4 mb - 0.00 in0.0 mm 0.16 in4.1 mm
10:45 PM 33.0°F0.6°C 29.3°F-1.5°C 86% Calm Calm -- 30.19 in1022.4 mb - 0.00 in0.0 mm 0.16 in4.1 mm
11:00 PM 33.4°F0.8°C 30.0°F-1.1°C 87% Calm Calm -- 30.19 in1022.4 mb - 0.00 in0.0 mm 0.16 in4.1 mm
11:15 PM 33.7°F0.9°C 30.3°F-0.9°C 87% Calm Calm -- 30.19 in1022.4 mb - 0.00 in0.0 mm 0.16 in4.1 mm
11:30 PM 33.7°F0.9°C 30.2°F-1.0°C 87% Calm Calm -- 30.19 in1022.4 mb - 0.00 in0.0 mm 0.16 in4.1 mm
11:45 PM 33.3°F0.7°C 29.9°F-1.2°C 87% Calm Calm -- 30.18 in1022.0 mb - 0.00 in0.0 mm 0.16 in4.1 mm